Time;durP1;ratioP1;P1;durP2;ratioP2;P2;SDS_P1;SDS_P2;PMS_P1;PMS_P2;Temp;Humidity;BMP_temperature;BMP_pressure;BME280_temperature;BME280_humidity;BME280_pressure;Samples;Min_cycle;Max_cycle;Signal;HPM_P1;HPM_P2
2022/05/10 00:03:50;;;;;;;2.45;1.60;;;;;;;;;;10504404;28;20027;-70
2022/05/10 00:08:50;;;;;;;3.90;2.15;;;;;;;;;;10504258;28;20021;-71
2022/05/10 00:13:51;;;;;;;2.72;2.03;;;;;;;;;;10504612;28;20070;-72
2022/05/10 00:18:51;;;;;;;3.10;2.30;;;;;;;;;;10504481;28;20035;-73
2022/05/10 00:23:52;;;;;;;2.43;1.87;;;;;;;;;;10504212;28;20032;-72
2022/05/10 00:28:52;;;;;;;5.38;1.70;;;;;;;;;;10486029;28;20021;-72
2022/05/10 00:33:52;;;;;;;2.90;2.28;;;;;;;;;;10484987;28;20048;-71
2022/05/10 00:38:53;;;;;;;5.50;2.70;;;;;;;;;;10484593;28;20441;-72
2022/05/10 00:43:57;;;;;;;7.50;1.93;;;;;;;;;;10485046;28;20472;-70
2022/05/10 00:49:00;;;;;;;3.33;1.90;;;;;;;;;;10484949;28;20056;-71
2022/05/10 00:54:01;;;;;;;4.05;2.15;;;;;;;;;;10484569;28;20020;-75
2022/05/10 00:59:07;;;;;;;4.13;1.98;;;;;;;;;;10484217;28;20027;-76
2022/05/10 01:04:11;;;;;;;2.90;2.00;;;;;;;;;;10483874;28;20028;-72
2022/05/10 01:09:14;;;;;;;5.80;2.05;;;;;;;;;;10483899;28;20423;-72
2022/05/10 01:14:17;;;;;;;3.67;2.22;;;;;;;;;;10484133;28;20024;-74
2022/05/10 01:19:17;;;;;;;5.00;2.00;;;;;;;;;;10485602;28;20411;-72
2022/05/10 01:24:28;;;;;;;9.63;2.33;;;;;;;;;;10483512;28;20020;-74
2022/05/10 01:29:33;;;;;;;4.30;2.40;;;;;;;;;;10484986;28;20058;-73
2022/05/10 01:34:33;;;;;;;2.58;2.10;;;;;;;;;;10485478;28;20068;-73
2022/05/10 01:39:37;;;;;;;4.97;2.77;;;;;;;;;;10483386;28;20112;-72
2022/05/10 01:44:40;;;;;;;6.38;2.63;;;;;;;;;;10484214;28;20032;-78
2022/05/10 01:49:54;;;;;;;5.25;3.20;;;;;;;;;;10484747;28;20020;-74
2022/05/10 01:55:00;;;;;;;12.00;2.17;;;;;;;;;;10484503;28;20047;-70
2022/05/10 02:00:06;;;;;;;4.80;2.60;;;;;;;;;;10484700;28;20029;-70
2022/05/10 02:05:09;;;;;;;9.15;2.80;;;;;;;;;;10471503;28;20044;-71
2022/05/10 02:10:17;;;;;;;3.75;2.88;;;;;;;;;;10492566;28;20112;-77
2022/05/10 02:15:26;;;;;;;8.23;3.63;;;;;;;;;;10493849;28;20102;-71
2022/05/10 02:20:38;;;;;;;11.30;2.50;;;;;;;;;;10475538;28;20020;-71
2022/05/10 02:25:41;;;;;;;4.72;2.92;;;;;;;;;;10491790;28;20024;-75
2022/05/10 02:30:41;;;;;;;2.95;2.42;;;;;;;;;;10491842;28;20025;-74
2022/05/10 02:35:42;;;;;;;7.43;2.92;;;;;;;;;;10491391;28;20082;-71
2022/05/10 02:40:43;;;;;;;4.32;2.85;;;;;;;;;;10491328;28;20017;-71
2022/05/10 02:45:44;;;;;;;5.50;3.60;;;;;;;;;;10491155;28;20055;-72
2022/05/10 02:50:44;;;;;;;8.60;3.50;;;;;;;;;;10491289;28;20121;-73
2022/05/10 02:55:50;;;;;;;5.65;3.22;;;;;;;;;;10489671;28;20021;-71
2022/05/10 03:00:53;;;;;;;4.97;3.90;;;;;;;;;;10490610;28;20021;-70
2022/05/10 03:05:54;;;;;;;8.50;4.70;;;;;;;;;;10490288;28;20028;-75
2022/05/10 03:10:54;;;;;;;4.82;3.97;;;;;;;;;;10491771;28;20469;-72
2022/05/10 03:15:54;;;;;;;7.38;3.92;;;;;;;;;;10489786;28;20431;-71
2022/05/10 03:20:55;;;;;;;7.07;4.00;;;;;;;;;;10489501;28;20020;-74
2022/05/10 03:25:56;;;;;;;11.82;3.78;;;;;;;;;;10489532;28;20786;-72
2022/05/10 03:30:56;;;;;;;6.72;4.25;;;;;;;;;;10489369;28;20548;-72
2022/05/10 03:35:57;;;;;;;12.15;5.10;;;;;;;;;;10489002;28;20048;-77
2022/05/10 03:40:58;;;;;;;7.25;4.78;;;;;;;;;;10488908;28;20082;-72
2022/05/10 03:46:04;;;;;;;7.97;4.20;;;;;;;;;;10488353;28;20119;-73
2022/05/10 03:51:04;;;;;;;9.73;4.70;;;;;;;;;;10489487;28;20468;-73
2022/05/10 03:56:05;;;;;;;19.27;5.55;;;;;;;;;;10488244;28;20093;-73
2022/05/10 04:01:07;;;;;;;11.65;4.70;;;;;;;;;;10487906;28;20139;-76
2022/05/10 04:06:07;;;;;;;12.90;5.03;;;;;;;;;;10487682;28;20024;-72
2022/05/10 04:11:11;;;;;;;11.65;4.68;;;;;;;;;;10486571;28;20544;-72
2022/05/10 04:16:11;;;;;;;12.88;4.75;;;;;;;;;;10487797;28;20054;-74
2022/05/10 04:21:11;;;;;;;9.48;5.88;;;;;;;;;;10486529;28;20074;-71
2022/05/10 04:26:13;;;;;;;14.55;6.20;;;;;;;;;;10486566;28;20569;-71
2022/05/10 04:31:14;;;;;;;12.88;5.72;;;;;;;;;;10496530;28;20123;-70
2022/05/10 04:36:14;;;;;;;10.25;5.13;;;;;;;;;;10486077;28;20059;-73
2022/05/10 04:41:27;;;;;;;16.85;9.95;;;;;;;;;;10486240;28;20020;-71
2022/05/10 04:46:29;;;;;;;18.48;6.15;;;;;;;;;;10493332;28;20058;-73
2022/05/10 04:51:30;;;;;;;8.82;5.35;;;;;;;;;;10510480;28;20515;-74
2022/05/10 04:56:30;;;;;;;14.10;4.45;;;;;;;;;;10527535;28;20028;-75
2022/05/10 05:01:31;;;;;;;6.40;4.60;;;;;;;;;;10526388;28;20020;-72
2022/05/10 05:06:33;;;;;;;8.95;3.95;;;;;;;;;;10532378;28;20105;-74
2022/05/10 05:11:33;;;;;;;7.75;4.30;;;;;;;;;;10509862;28;20027;-71
2022/05/10 05:16:34;;;;;;;13.87;4.77;;;;;;;;;;10528066;28;20024;-72
2022/05/10 05:21:34;;;;;;;6.88;3.90;;;;;;;;;;10509856;28;20391;-73
2022/05/10 05:26:34;;;;;;;12.15;3.78;;;;;;;;;;10527525;28;20081;-72
2022/05/10 05:31:35;;;;;;;11.93;4.93;;;;;;;;;;10509384;28;20517;-75
2022/05/10 05:36:35;;;;;;;18.17;4.72;;;;;;;;;;10525748;28;20047;-72
2022/05/10 05:41:35;;;;;;;12.57;4.65;;;;;;;;;;10525706;28;20034;-72
2022/05/10 05:46:36;;;;;;;8.82;4.95;;;;;;;;;;10526307;28;20028;-76
2022/05/10 05:51:36;;;;;;;14.68;4.88;;;;;;;;;;10526196;28;20614;-76
2022/05/10 05:56:36;;;;;;;13.23;4.23;;;;;;;;;;10525838;28;20848;-71
2022/05/10 06:01:37;;;;;;;7.15;4.22;;;;;;;;;;10509342;28;20395;-75
2022/05/10 06:06:37;;;;;;;11.70;4.18;;;;;;;;;;10525662;28;20119;-71
2022/05/10 06:11:38;;;;;;;11.77;3.50;;;;;;;;;;10526190;28;20036;-74
2022/05/10 06:16:39;;;;;;;10.70;4.32;;;;;;;;;;10525653;28;20521;-72
2022/05/10 06:21:41;;;;;;;7.18;3.28;;;;;;;;;;10525578;28;20024;-74
2022/05/10 06:26:41;;;;;;;7.88;2.67;;;;;;;;;;10525675;28;20032;-72
2022/05/10 06:31:42;;;;;;;7.57;2.30;;;;;;;;;;10524892;28;20048;-73
2022/05/10 06:36:43;;;;;;;8.02;2.50;;;;;;;;;;10525194;28;20565;-72
2022/05/10 06:41:43;;;;;;;15.02;3.10;;;;;;;;;;10524924;28;20016;-73
2022/05/10 06:46:44;;;;;;;5.18;2.47;;;;;;;;;;10524179;28;20119;-73
2022/05/10 06:51:44;;;;;;;9.05;2.22;;;;;;;;;;10528994;28;20293;-72
2022/05/10 06:56:45;;;;;;;6.80;2.03;;;;;;;;;;10532477;28;20020;-73
2022/05/10 07:01:45;;;;;;;10.38;2.80;;;;;;;;;;10531895;28;20024;-72
2022/05/10 07:06:45;;;;;;;11.90;2.35;;;;;;;;;;10532221;28;20024;-76
2022/05/10 07:11:48;;;;;;;8.03;2.30;;;;;;;;;;10531830;28;20058;-72
2022/05/10 07:16:49;;;;;;;6.75;1.80;;;;;;;;;;10514985;28;20020;-77
2022/05/10 07:21:49;;;;;;;5.55;1.85;;;;;;;;;;10531122;28;20020;-74
2022/05/10 07:26:50;;;;;;;5.80;1.83;;;;;;;;;;10531797;28;20042;-74
2022/05/10 07:31:50;;;;;;;9.67;2.63;;;;;;;;;;10530679;28;20048;-72
2022/05/10 07:36:50;;;;;;;8.45;2.42;;;;;;;;;;10531316;28;20032;-71
2022/05/10 07:41:54;;;;;;;4.35;2.42;;;;;;;;;;10530809;28;20031;-72
2022/05/10 07:46:54;;;;;;;6.45;2.20;;;;;;;;;;10530242;28;20020;-72
2022/05/10 07:51:54;;;;;;;6.93;2.13;;;;;;;;;;10530389;28;20030;-71
2022/05/10 07:56:54;;;;;;;3.85;2.00;;;;;;;;;;10530902;28;20035;-76
2022/05/10 08:01:55;;;;;;;3.43;1.60;;;;;;;;;;10530439;28;20023;-79
2022/05/10 08:06:55;;;;;;;9.80;2.10;;;;;;;;;;10529872;28;20028;-74
2022/05/10 08:11:55;;;;;;;10.93;1.90;;;;;;;;;;10529759;28;20078;-77
2022/05/10 08:16:56;;;;;;;4.57;1.35;;;;;;;;;;10529170;28;20506;-73
2022/05/10 08:21:58;;;;;;;7.38;2.00;;;;;;;;;;10529120;28;20472;-74
2022/05/10 08:26:59;;;;;;;3.90;1.70;;;;;;;;;;10529971;28;20092;-70
2022/05/10 08:31:59;;;;;;;2.53;1.33;;;;;;;;;;10530351;28;20051;-71
2022/05/10 08:37:03;;;;;;;6.13;1.55;;;;;;;;;;10528633;28;20483;-71
2022/05/10 08:42:12;;;;;;;2.33;0.90;;;;;;;;;;10528244;28;20468;-71
2022/05/10 08:47:13;;;;;;;2.85;1.05;;;;;;;;;;10528625;28;20468;-72
2022/05/10 08:52:15;;;;;;;5.25;1.00;;;;;;;;;;10527916;28;20031;-73
2022/05/10 08:57:19;;;;;;;4.95;1.05;;;;;;;;;;10527589;28;20036;-71
2022/05/10 09:02:35;;;;;;;7.60;1.35;;;;;;;;;;10527530;28;20049;-71
2022/05/10 09:07:35;;;;;;;;;;;;;;;;;;10527916;28;20020;-74
2022/05/10 09:12:45;;;;;;;1.90;1.30;;;;;;;;;;10526738;28;19920;-72
2022/05/10 09:17:45;;;;;;;3.92;1.20;;;;;;;;;;10527095;28;20082;-73
2022/05/10 09:23:15;;;;;;;5.37;1.43;;;;;;;;;;10510490;28;20112;-71
2022/05/10 09:28:24;;;;;;;4.40;1.25;;;;;;;;;;10491565;28;20071;-72
2022/05/10 09:38:45;;;;;;;5.15;1.15;;;;;;;;;;10527572;28;20066;-74
2022/05/10 09:43:46;;;;;;;2.10;1.20;;;;;;;;;;10526599;28;20028;-74
2022/05/10 09:48:50;;;;;;;4.95;1.00;;;;;;;;;;10526012;28;20028;-77
2022/05/10 09:53:52;;;;;;;3.10;1.27;;;;;;;;;;10526017;28;20020;-72
2022/05/10 09:58:55;;;;;;;1.40;0.82;;;;;;;;;;10509035;28;20078;-78
2022/05/10 10:04:11;;;;;;;3.00;1.10;;;;;;;;;;10525868;28;20585;-72
2022/05/10 10:09:28;;;;;;;2.75;1.00;;;;;;;;;;10525591;28;20023;-72
2022/05/10 10:14:48;;;;;;;3.15;1.40;;;;;;;;;;10526180;28;20020;-77
2022/05/10 10:20:00;;;;;;;4.43;1.08;;;;;;;;;;10526251;28;20583;-78
2022/05/10 10:25:15;;;;;;;2.53;1.15;;;;;;;;;;10527674;28;20518;-79
2022/05/10 10:30:16;;;;;;;6.32;1.80;;;;;;;;;;10533828;28;20048;-72
2022/05/10 10:35:18;;;;;;;1.55;1.08;;;;;;;;;;10533632;28;20135;-71
2022/05/10 10:40:27;;;;;;;3.78;1.00;;;;;;;;;;10535430;28;20154;-71
2022/05/10 10:45:39;;;;;;;2.15;1.20;;;;;;;;;;10534596;28;20020;-73
2022/05/10 10:50:39;;;;;;;2.13;1.10;;;;;;;;;;10533232;28;20048;-75
2022/05/10 10:55:42;;;;;;;3.37;1.30;;;;;;;;;;10534327;28;20107;-71
2022/05/10 11:00:54;;;;;;;2.55;0.90;;;;;;;;;;10532701;28;20024;-71
2022/05/10 11:05:54;;;;;;;2.53;1.20;;;;;;;;;;10532668;28;20035;-71
2022/05/10 11:11:03;;;;;;;4.30;1.45;;;;;;;;;;10531926;28;20038;-72
2022/05/10 11:16:14;;;;;;;6.30;1.67;;;;;;;;;;10530787;28;20046;-70
2022/05/10 11:21:23;;;;;;;4.20;1.60;;;;;;;;;;10533149;28;20136;-69
2022/05/10 11:26:33;;;;;;;2.40;1.80;;;;;;;;;;10531249;28;20027;-70
2022/05/10 11:31:39;;;;;;;3.50;1.77;;;;;;;;;;10531143;28;20526;-70
2022/05/10 11:36:41;;;;;;;3.67;1.65;;;;;;;;;;10532291;28;20376;-73
2022/05/10 11:41:59;;;;;;;2.38;1.65;;;;;;;;;;10532194;28;20643;-71
2022/05/10 11:47:00;;;;;;;6.38;2.30;;;;;;;;;;10530404;28;20115;-71
2022/05/10 11:52:00;;;;;;;3.40;2.08;;;;;;;;;;10530402;28;20084;-68
2022/05/10 11:57:01;;;;;;;3.30;2.03;;;;;;;;;;10529947;28;20030;-66
2022/05/10 12:02:03;;;;;;;2.45;1.60;;;;;;;;;;10529879;28;20028;-70
2022/05/10 12:07:18;;;;;;;3.47;1.40;;;;;;;;;;10530085;28;20494;-76
2022/05/10 12:12:31;;;;;;;5.07;2.17;;;;;;;;;;10512607;28;20028;-69
2022/05/10 12:23:02;;;;;;;2.20;1.40;;;;;;;;;;10505357;28;20472;-68
2022/05/10 12:28:02;;;;;;;5.35;2.13;;;;;;;;;;10498037;28;20108;-69
2022/05/10 12:33:21;;;;;;;6.97;1.60;;;;;;;;;;10504821;28;20047;-70
2022/05/10 12:38:32;;;;;;;5.75;2.00;;;;;;;;;;10521385;28;20386;-72
2022/05/10 12:43:51;;;;;;;4.10;2.33;;;;;;;;;;10502253;28;20029;-70
2022/05/10 12:48:52;;;;;;;3.03;1.80;;;;;;;;;;10522838;28;20581;-71
2022/05/10 12:54:03;;;;;;;6.43;1.70;;;;;;;;;;10508434;28;20081;-74
2022/05/10 12:59:11;;;;;;;4.47;1.50;;;;;;;;;;10488935;28;20040;-70
2022/05/10 13:04:15;;;;;;;6.43;1.67;;;;;;;;;;10504758;28;20028;-70
2022/05/10 13:09:39;;;;;;;2.17;1.73;;;;;;;;;;10510618;28;20278;-73
2022/05/10 13:14:43;;;;;;;2.13;1.83;;;;;;;;;;10490219;28;20089;-70
2022/05/10 13:19:45;;;;;;;5.30;2.20;;;;;;;;;;10510234;28;20032;-70
2022/05/10 13:24:46;;;;;;;5.80;2.10;;;;;;;;;;10507664;28;20031;-75
2022/05/10 13:29:50;;;;;;;2.88;1.90;;;;;;;;;;10506592;28;20077;-70
2022/05/10 13:34:51;;;;;;;10.30;2.15;;;;;;;;;;10506535;28;20040;-72
2022/05/10 13:39:52;;;;;;;3.20;1.83;;;;;;;;;;10508343;28;20109;-74
2022/05/10 13:44:52;;;;;;;2.45;1.55;;;;;;;;;;10506353;28;20024;-77
2022/05/10 13:49:53;;;;;;;3.73;1.90;;;;;;;;;;10512010;28;20028;-70
2022/05/10 13:54:58;;;;;;;6.73;1.83;;;;;;;;;;10492355;28;20152;-73
2022/05/10 13:59:59;;;;;;;3.55;2.08;;;;;;;;;;10493766;28;20075;-70
2022/05/10 14:05:00;;;;;;;2.05;1.50;;;;;;;;;;10513931;28;20024;-70
2022/05/10 14:10:07;;;;;;;6.05;2.30;;;;;;;;;;10515815;28;20028;-69
2022/05/10 14:15:11;;;;;;;2.90;2.03;;;;;;;;;;10508835;28;20036;-71
2022/05/10 14:20:32;;;;;;;3.13;1.98;;;;;;;;;;10509524;28;20032;-70
2022/05/10 14:25:34;;;;;;;2.25;1.60;;;;;;;;;;10502134;28;20097;-70
2022/05/10 14:30:38;;;;;;;2.78;1.80;;;;;;;;;;10490181;28;20078;-75
2022/05/10 14:35:39;;;;;;;4.25;2.30;;;;;;;;;;10507870;28;20712;-71
2022/05/10 14:40:45;;;;;;;7.40;2.05;;;;;;;;;;10490452;28;20013;-69
2022/05/10 14:45:47;;;;;;;6.43;2.47;;;;;;;;;;10490375;28;20021;-70
2022/05/10 14:50:52;;;;;;;13.30;1.75;;;;;;;;;;10498597;28;20071;-70
2022/05/10 14:56:12;;;;;;;3.97;1.90;;;;;;;;;;10489828;28;20372;-70
2022/05/10 15:01:19;;;;;;;8.35;2.05;;;;;;;;;;10489515;28;20081;-69
2022/05/10 15:06:19;;;;;;;10.75;1.58;;;;;;;;;;10489834;28;20016;-72
2022/05/10 15:11:20;;;;;;;5.10;1.65;;;;;;;;;;10489568;28;20021;-72
2022/05/10 15:16:20;;;;;;;5.22;2.13;;;;;;;;;;10472721;28;20511;-74
2022/05/10 15:21:24;;;;;;;2.03;1.83;;;;;;;;;;10489704;28;20409;-71
2022/05/10 15:26:33;;;;;;;8.13;1.98;;;;;;;;;;10490726;28;20105;-70
2022/05/10 15:31:34;;;;;;;4.03;2.65;;;;;;;;;;10494315;28;20049;-71
2022/05/10 15:36:34;;;;;;;3.17;1.88;;;;;;;;;;10488448;28;20496;-71
2022/05/10 15:41:34;;;;;;;1.80;1.70;;;;;;;;;;10488785;28;20021;-70
2022/05/10 15:46:34;;;;;;;5.03;2.47;;;;;;;;;;10471959;28;20047;-71
2022/05/10 15:51:35;;;;;;;2.30;1.63;;;;;;;;;;10488297;28;20020;-69
2022/05/10 15:56:35;;;;;;;6.68;2.28;;;;;;;;;;10487783;28;20028;-75
2022/05/10 16:01:35;;;;;;;3.10;2.33;;;;;;;;;;10487598;28;20054;-70
2022/05/10 16:06:36;;;;;;;4.25;2.30;;;;;;;;;;10487719;28;20035;-71
2022/05/10 16:11:36;;;;;;;5.53;1.97;;;;;;;;;;10487515;28;20028;-74
2022/05/10 16:16:36;;;;;;;4.23;1.93;;;;;;;;;;10487316;28;20055;-70
2022/05/10 16:21:38;;;;;;;2.97;2.30;;;;;;;;;;10487374;28;20259;-71
2022/05/10 16:31:57;;;;;;;3.95;2.42;;;;;;;;;;10488489;28;20049;-70
2022/05/10 16:36:57;;;;;;;2.83;2.57;;;;;;;;;;10501752;28;20031;-69
2022/05/10 16:41:58;;;;;;;21.30;6.40;;;;;;;;;;10505407;28;20165;-70
2022/05/10 16:46:58;;;;;;;2.60;2.40;;;;;;;;;;10502742;28;20056;-71
2022/05/10 16:51:59;;;;;;;10.40;2.17;;;;;;;;;;10506717;28;20024;-70
2022/05/10 16:57:01;;;;;;;7.13;2.50;;;;;;;;;;10505674;28;20024;-73
2022/05/10 17:02:04;;;;;;;14.80;6.47;;;;;;;;;;10507693;28;20543;-71
2022/05/10 17:07:04;;;;;;;6.13;3.70;;;;;;;;;;10524636;28;20038;-74
2022/05/10 17:12:05;;;;;;;4.72;2.78;;;;;;;;;;10516351;28;20804;-73
2022/05/10 17:17:06;;;;;;;6.70;3.00;;;;;;;;;;10514000;28;20035;-70
2022/05/10 17:22:06;;;;;;;12.73;3.50;;;;;;;;;;10510290;28;20032;-75
2022/05/10 17:27:07;;;;;;;4.70;2.97;;;;;;;;;;10501280;28;20021;-71
2022/05/10 17:32:08;;;;;;;5.45;3.55;;;;;;;;;;10507600;28;20064;-70
2022/05/10 17:37:11;;;;;;;9.77;3.55;;;;;;;;;;10511668;28;20502;-73
2022/05/10 17:42:11;;;;;;;9.00;3.40;;;;;;;;;;10503666;28;20222;-69
2022/05/10 17:47:11;;;;;;;8.98;3.00;;;;;;;;;;10510388;23;20274;-73
2022/05/10 17:52:12;;;;;;;5.72;3.00;;;;;;;;;;10490681;28;20080;-75
2022/05/10 17:57:12;;;;;;;5.87;3.60;;;;;;;;;;10486748;28;20443;-75
2022/05/10 18:02:12;;;;;;;4.25;2.85;;;;;;;;;;10492706;28;20789;-71
2022/05/10 18:07:13;;;;;;;7.60;3.70;;;;;;;;;;10527368;28;20652;-70
2022/05/10 18:12:15;;;;;;;5.47;3.10;;;;;;;;;;10509583;28;20032;-71
2022/05/10 18:17:16;;;;;;;11.50;2.88;;;;;;;;;;10509122;28;20059;-73
2022/05/10 18:22:16;;;;;;;6.50;3.20;;;;;;;;;;10509456;28;20031;-74
2022/05/10 18:27:17;;;;;;;5.65;3.33;;;;;;;;;;10508746;28;20082;-70
2022/05/10 18:32:17;;;;;;;5.87;3.20;;;;;;;;;;10527206;28;20038;-72
2022/05/10 18:37:17;;;;;;;7.88;3.40;;;;;;;;;;10492191;28;20285;-70
2022/05/10 18:42:19;;;;;;;4.85;2.88;;;;;;;;;;10508816;28;20487;-73
2022/05/10 18:47:19;;;;;;;6.03;3.80;;;;;;;;;;10512263;28;20515;-74
2022/05/10 18:52:20;;;;;;;5.40;2.58;;;;;;;;;;10516044;28;20089;-70
2022/05/10 18:57:21;;;;;;;5.43;3.13;;;;;;;;;;10515989;28;20112;-70
2022/05/10 19:02:21;;;;;;;10.65;3.10;;;;;;;;;;10499146;28;20503;-72
2022/05/10 19:07:22;;;;;;;9.65;3.20;;;;;;;;;;10513653;28;20032;-69
2022/05/10 19:12:22;;;;;;;7.50;3.30;;;;;;;;;;10533385;28;20524;-70
2022/05/10 19:17:22;;;;;;;4.95;3.25;;;;;;;;;;10536522;28;20407;-75
2022/05/10 19:22:22;;;;;;;17.67;9.30;;;;;;;;;;10517296;28;20479;-74
2022/05/10 19:27:23;;;;;;;6.90;3.40;;;;;;;;;;10514897;28;20027;-69
2022/05/10 19:32:24;;;;;;;6.60;4.03;;;;;;;;;;10514680;28;20039;-73
2022/05/10 19:37:24;;;;;;;7.20;4.13;;;;;;;;;;10531366;28;20059;-70
2022/05/10 19:42:24;;;;;;;6.47;3.92;;;;;;;;;;10513978;28;20034;-71
2022/05/10 19:47:24;;;;;;;11.37;5.97;;;;;;;;;;10512005;28;20201;-70
2022/05/10 19:52:25;;;;;;;9.95;5.00;;;;;;;;;;10530589;28;20031;-71
2022/05/10 19:57:26;;;;;;;7.85;4.25;;;;;;;;;;10419737;23;20084;-71
2022/05/10 20:07:45;;;;;;;9.07;4.38;;;;;;;;;;10444386;28;20025;-71
2022/05/10 20:12:45;;;;;;;9.73;5.03;;;;;;;;;;10417809;28;20409;-73
2022/05/10 20:17:46;;;;;;;7.05;4.25;;;;;;;;;;10417831;28;20037;-69
2022/05/10 20:22:47;;;;;;;8.68;5.15;;;;;;;;;;10424057;28;20017;-71
2022/05/10 20:27:47;;;;;;;7.97;4.90;;;;;;;;;;10412882;28;20029;-71
2022/05/10 20:32:48;;;;;;;9.07;5.75;;;;;;;;;;10410314;28;20027;-71
2022/05/10 20:37:48;;;;;;;9.88;5.88;;;;;;;;;;10408649;28;20032;-71
2022/05/10 20:42:51;;;;;;;12.10;5.45;;;;;;;;;;10410622;28;20029;-70
2022/05/10 20:47:51;;;;;;;8.57;5.40;;;;;;;;;;10416150;28;20488;-70
2022/05/10 20:52:52;;;;;;;8.20;5.90;;;;;;;;;;10415602;28;20037;-71
2022/05/10 20:57:52;;;;;;;13.77;5.80;;;;;;;;;;10415654;28;20041;-71
2022/05/10 21:02:53;;;;;;;10.03;6.57;;;;;;;;;;10416347;28;20033;-71
2022/05/10 21:13:13;;;;;;;10.88;5.82;;;;;;;;;;10416102;28;20083;-72
2022/05/10 21:18:13;;;;;;;11.38;5.53;;;;;;;;;;10406905;28;20128;-69
2022/05/10 21:23:14;;;;;;;11.02;5.63;;;;;;;;;;10408080;28;20487;-73
2022/05/10 21:28:14;;;;;;;7.85;5.35;;;;;;;;;;10414496;28;20025;-70
2022/05/10 21:33:15;;;;;;;8.05;5.57;;;;;;;;;;10415275;28;20041;-74
2022/05/10 21:38:16;;;;;;;9.63;5.53;;;;;;;;;;10405490;28;20038;-71
2022/05/10 21:43:18;;;;;;;9.35;5.20;;;;;;;;;;10401667;28;20060;-72
2022/05/10 21:48:20;;;;;;;11.00;5.47;;;;;;;;;;10401854;28;20033;-70
2022/05/10 21:53:22;;;;;;;11.43;5.30;;;;;;;;;;10419890;28;20052;-70
2022/05/10 21:58:23;;;;;;;8.70;5.88;;;;;;;;;;10442420;28;20452;-72
2022/05/10 22:03:24;;;;;;;10.05;6.05;;;;;;;;;;10442452;28;20024;-71
2022/05/10 22:08:24;;;;;;;6.25;4.25;;;;;;;;;;10424759;28;20029;-71
2022/05/10 22:13:25;;;;;;;5.90;3.40;;;;;;;;;;10409945;28;20035;-69
2022/05/10 22:18:25;;;;;;;4.78;2.92;;;;;;;;;;10401192;28;20028;-72
2022/05/10 22:23:26;;;;;;;7.13;3.72;;;;;;;;;;10405934;28;20071;-71
2022/05/10 22:28:26;;;;;;;4.18;2.95;;;;;;;;;;10408349;28;20036;-71
2022/05/10 22:33:27;;;;;;;4.07;3.20;;;;;;;;;;10409286;28;20033;-69
2022/05/10 22:38:27;;;;;;;6.57;3.00;;;;;;;;;;10393021;28;20287;-70
2022/05/10 22:43:28;;;;;;;6.72;3.15;;;;;;;;;;10376467;28;20021;-70
2022/05/10 22:48:29;;;;;;;6.63;3.15;;;;;;;;;;10409228;28;20030;-70
2022/05/10 22:53:30;;;;;;;5.63;3.15;;;;;;;;;;10403902;28;20057;-69
2022/05/10 22:58:30;;;;;;;4.82;3.47;;;;;;;;;;10351915;28;20048;-75
2022/05/10 23:03:30;;;;;;;6.93;4.03;;;;;;;;;;10367515;28;20485;-76
2022/05/10 23:08:31;;;;;;;4.53;3.90;;;;;;;;;;10367243;28;20481;-71
2022/05/10 23:13:32;;;;;;;3.70;3.40;;;;;;;;;;10351192;28;20622;-69
2022/05/10 23:18:32;;;;;;;7.88;3.80;;;;;;;;;;10367488;28;20712;-76
2022/05/10 23:23:32;;;;;;;7.07;4.25;;;;;;;;;;10367003;28;20018;-69
2022/05/10 23:28:33;;;;;;;4.10;3.63;;;;;;;;;;10368387;28;20037;-74
2022/05/10 23:33:33;;;;;;;5.65;3.60;;;;;;;;;;10367936;28;20037;-70
2022/05/10 23:38:34;;;;;;;5.10;3.70;;;;;;;;;;10367506;28;20048;-69
2022/05/10 23:48:53;;;;;;;8.20;4.05;;;;;;;;;;10367602;28;20025;-73
2022/05/10 23:53:56;;;;;;;5.80;3.83;;;;;;;;;;10365650;28;20453;-70
2022/05/10 23:58:56;;;;;;;5.35;4.28;;;;;;;;;;10367243;28;20083;-70
